Time;durP1;ratioP1;P1;durP2;ratioP2;P2;SDS_P1;SDS_P2;PMS_P1;PMS_P2;Temp;Humidity;BMP_temperature;BMP_pressure;BME280_temperature;BME280_humidity;BME280_pressure;Samples;Min_cycle;Max_cycle;Signal;HPM_P1;HPM_P2
2021/05/18 00:00:48;;;;;;;3.33;1.80;;;333.40;2329.60;;;;;;5021791;28;20030;-75
2021/05/18 00:03:16;;;;;;;2.03;1.42;;;333.40;2329.60;;;;;;5023452;28;20025;-75
2021/05/18 00:05:46;;;;;;;5.68;1.88;;;333.40;2329.60;;;;;;5036344;28;20033;-75
2021/05/18 00:08:13;;;;;;;4.13;1.70;;;333.30;2329.60;;;;;;5033398;28;20025;-75
2021/05/18 00:13:29;;;;;;;2.65;1.55;;;333.30;2329.60;;;;;;5026059;28;20084;-75
2021/05/18 00:15:57;;;;;;;4.72;1.77;;;333.30;2329.60;;;;;;5023972;28;20045;-73
2021/05/18 00:18:24;;;;;;;2.00;1.63;;;333.30;2329.60;;;;;;5017793;28;20458;-75
2021/05/18 00:20:50;;;;;;;2.15;1.30;;;333.30;2329.60;;;;;;5020411;28;20057;-75
2021/05/18 00:23:16;;;;;;;1.90;1.70;;;333.30;2329.60;;;;;;5022448;28;20037;-74
2021/05/18 00:25:44;;;;;;;2.80;1.80;;;333.30;2329.60;;;;;;5016396;28;20087;-76
2021/05/18 00:28:11;;;;;;;3.20;1.55;;;333.30;2329.60;;;;;;5015962;28;20052;-75
2021/05/18 00:30:40;;;;;;;2.88;1.60;;;333.30;2329.60;;;;;;5018014;28;20036;-76
2021/05/18 00:33:16;;;;;;;3.78;1.60;;;333.30;2329.60;;;;;;5016048;28;20069;-74
2021/05/18 00:35:43;;;;;;;5.43;1.67;;;333.30;2329.60;;;;;;5027791;28;20048;-74
2021/05/18 00:38:10;;;;;;;2.60;1.60;;;333.30;2329.60;;;;;;5039038;28;20044;-75
2021/05/18 00:40:36;;;;;;;1.92;1.70;;;333.20;2329.60;;;;;;5053164;28;20116;-74
2021/05/18 00:43:02;;;;;;;2.15;1.45;;;333.20;2329.60;;;;;;5054401;28;20037;-74
2021/05/18 00:45:40;;;;;;;1.42;1.33;;;333.20;2329.60;;;;;;5053398;28;20470;-75
2021/05/18 00:48:07;;;;;;;2.60;1.80;;;333.20;2329.60;;;;;;5034524;28;20393;-74
2021/05/18 00:50:35;;;;;;;2.25;1.38;;;333.20;2329.60;;;;;;5053962;28;20025;-74
2021/05/18 00:53:02;;;;;;;1.75;1.65;;;333.20;2329.60;;;;;;5053698;28;20470;-74
2021/05/18 00:55:38;;;;;;;1.55;1.45;;;333.20;2329.60;;;;;;5057898;28;20045;-74
2021/05/18 01:01:10;;;;;;;2.33;1.75;;;333.20;2329.60;;;;;;5051924;28;20035;-73
2021/05/18 01:03:37;;;;;;;1.30;1.20;;;333.20;2329.60;;;;;;5053298;28;20029;-75
2021/05/18 01:08:55;;;;;;;2.05;1.25;;;333.20;2329.60;;;;;;5053762;28;20087;-74
2021/05/18 01:11:24;;;;;;;3.80;1.52;;;333.20;2329.60;;;;;;5048487;28;21012;-75
2021/05/18 01:13:57;;;;;;;1.70;1.60;;;333.20;2329.60;;;;;;5052736;28;20029;-74
2021/05/18 01:16:24;;;;;;;2.53;1.67;;;333.20;2329.60;;;;;;5055785;28;20367;-75
2021/05/18 01:18:50;;;;;;;4.82;1.58;;;333.20;2329.60;;;;;;5039516;28;20443;-74
2021/05/18 01:21:17;;;;;;;2.00;1.67;;;333.30;2329.60;;;;;;5043724;28;20078;-74
2021/05/18 01:23:43;;;;;;;1.35;1.27;;;333.30;2329.60;;;;;;5052590;28;20041;-74
2021/05/18 01:26:11;;;;;;;2.13;1.60;;;333.30;2329.60;;;;;;5052827;28;20542;-75
2021/05/18 01:28:38;;;;;;;3.65;1.50;;;333.20;2329.60;;;;;;5052891;28;20107;-75
2021/05/18 01:31:05;;;;;;;6.00;1.63;;;333.20;2329.60;;;;;;5043128;28;20442;-74
2021/05/18 01:33:31;;;;;;;3.83;1.63;;;333.20;2329.60;;;;;;5048559;28;20173;-74
2021/05/18 01:35:59;;;;;;;1.95;1.40;;;333.20;2329.60;;;;;;5052551;28;20495;-75
2021/05/18 01:38:35;;;;;;;2.95;1.40;;;333.10;2329.60;;;;;;5052994;28;20407;-74
2021/05/18 01:43:53;;;;;;;4.60;1.63;;;333.10;2329.60;;;;;;5049608;28;20090;-74
2021/05/18 01:46:20;;;;;;;4.07;1.80;;;333.20;2329.60;;;;;;5030592;28;20063;-74
2021/05/18 01:48:53;;;;;;;1.40;1.30;;;333.20;2329.60;;;;;;5052883;28;20021;-75
2021/05/18 01:51:18;;;;;;;4.28;1.58;;;333.20;2329.60;;;;;;5052341;28;20021;-74
2021/05/18 01:53:44;;;;;;;2.22;1.55;;;333.20;2329.60;;;;;;5054708;28;20367;-75
2021/05/18 01:58:38;;;;;;;3.70;1.65;;;333.10;2329.60;;;;;;5050121;28;20018;-75
2021/05/18 02:01:04;;;;;;;4.15;1.58;;;333.10;2329.60;;;;;;5045414;28;20021;-75
2021/05/18 02:03:30;;;;;;;1.70;1.50;;;333.00;2329.60;;;;;;5055263;28;20036;-74
2021/05/18 02:05:57;;;;;;;3.53;1.50;;;333.00;2329.60;;;;;;5062284;28;20032;-74
2021/05/18 02:08:23;;;;;;;2.42;1.50;;;333.00;2329.60;;;;;;5051284;28;20052;-75
2021/05/18 02:10:49;;;;;;;1.55;1.42;;;332.90;2329.60;;;;;;5051262;28;20067;-75
2021/05/18 02:13:15;;;;;;;2.30;1.52;;;332.90;2329.60;;;;;;5035175;28;20021;-74
2021/05/18 02:16:00;;;;;;;2.75;2.03;;;332.90;2329.60;;;;;;5051941;28;20025;-75
2021/05/18 02:26:19;;;;;;;4.10;1.60;;;332.90;2329.60;;;;;;5054236;28;20143;-75
2021/05/18 02:28:45;;;;;;;2.10;1.63;;;332.90;2329.60;;;;;;5051098;28;20104;-74
2021/05/18 02:31:12;;;;;;;3.10;1.80;;;332.80;2329.60;;;;;;5051858;28;20028;-74
2021/05/18 02:33:38;;;;;;;3.83;1.80;;;332.80;2329.60;;;;;;5050971;28;20107;-73
2021/05/18 02:36:04;;;;;;;2.95;1.70;;;332.80;2329.60;;;;;;5046310;28;20195;-74
2021/05/18 02:38:30;;;;;;;3.03;1.60;;;308.10;2304.00;;;;;;5051099;28;20060;-74
2021/05/18 02:40:56;;;;;;;3.42;1.55;;;308.10;2304.00;;;;;;5049717;28;20021;-74
2021/05/18 02:43:30;;;;;;;3.17;1.55;;;308.10;2304.00;;;;;;5051916;28;20501;-74
2021/05/18 02:51:08;;;;;;;5.20;1.80;;;308.00;2304.00;;;;;;5053810;28;20036;-73
2021/05/18 02:53:34;;;;;;;3.20;1.70;;;308.00;2304.00;;;;;;5051288;28;20438;-74
2021/05/18 02:56:07;;;;;;;8.32;2.78;;;307.90;2304.00;;;;;;5051585;28;20025;-76
2021/05/18 02:58:35;;;;;;;;;;;308.00;2304.00;;;;;;5033334;28;20052;-75
2021/05/18 03:01:01;;;;;;;4.35;1.42;;;;;;;;;;5050574;28;19916;-74
2021/05/18 03:03:27;;;;;;;2.33;1.75;;;308.10;2304.00;;;;;;5052817;28;20087;-74
2021/05/18 03:05:55;;;;;;;8.05;1.90;;;307.90;2304.00;;;;;;5061895;28;20029;-75
2021/05/18 03:08:21;;;;;;;5.78;1.63;;;308.10;2304.00;;;;;;5054781;28;20486;-74
2021/05/18 03:10:47;;;;;;;4.97;1.48;;;307.90;2304.00;;;;;;5052126;28;20028;-75
2021/05/18 03:13:14;;;;;;;2.95;1.55;;;307.90;2304.00;;;;;;5055975;28;20111;-74
2021/05/18 03:15:40;;;;;;;4.90;1.42;;;307.90;2304.00;;;;;;5048724;28;20021;-75
2021/05/18 03:18:05;;;;;;;3.13;1.70;;;307.90;2304.00;;;;;;5037409;28;20028;-75
2021/05/18 03:20:32;;;;;;;5.05;1.58;;;307.90;2304.00;;;;;;5055030;28;20021;-75
2021/05/18 03:22:58;;;;;;;3.65;1.75;;;307.90;2304.00;;;;;;5056781;28;20507;-74
2021/05/18 03:25:24;;;;;;;4.50;1.50;;;307.90;2304.00;;;;;;5037357;28;20436;-76
2021/05/18 03:27:56;;;;;;;5.28;1.33;;;307.90;2304.00;;;;;;5059491;28;20025;-76
2021/05/18 03:35:32;;;;;;;3.13;1.30;;;307.90;2304.00;;;;;;5052568;28;20107;-74
2021/05/18 03:38:01;;;;;;;1.50;1.25;;;307.90;2304.00;;;;;;5054922;28;20092;-75
2021/05/18 03:40:29;;;;;;;1.55;1.20;;;308.00;2304.00;;;;;;5056054;28;20027;-75
2021/05/18 03:43:12;;;;;;;2.13;1.38;;;308.00;2304.00;;;;;;5044446;28;20043;-76
2021/05/18 03:45:42;;;;;;;1.58;1.25;;;308.00;2304.00;;;;;;5034752;28;20051;-75
2021/05/18 04:04:33;;;;;;;3.65;1.80;;;308.00;2304.00;;;;;;5027636;28;20056;-74
2021/05/18 04:17:52;;;;;;;2.30;1.15;;;308.10;2304.00;;;;;;5028436;28;20096;-75
2021/05/18 04:20:29;;;;;;;3.72;1.38;;;308.10;2304.00;;;;;;5027749;28;20025;-75
2021/05/18 04:39:10;;;;;;;3.53;1.42;;;332.90;2329.60;;;;;;5016901;28;20052;-74
2021/05/18 04:41:47;;;;;;;1.80;1.30;;;333.00;2329.60;;;;;;5019436;28;20486;-73
2021/05/18 04:50:23;;;;;;;4.15;1.45;;;333.00;2329.60;;;;;;5014204;28;20052;-73
2021/05/18 04:52:36;;;;;;;1.40;1.30;;;333.10;2329.60;;;;;;5012367;28;20042;-73
2021/05/18 05:00:44;;;;;;;2.47;1.48;;;333.40;2329.60;;;;;;5019579;28;20036;-75
2021/05/18 05:16:20;;;;;;;4.30;1.48;;;;;;;;;;5013727;28;20049;-75
2021/05/18 05:18:46;;;;;;;2.63;2.08;;;;;;;;;;5012365;28;20037;-74
2021/05/18 05:21:12;;;;;;;4.65;1.70;;;;;;;;;;5015260;28;20021;-75
2021/05/18 05:23:38;;;;;;;1.75;1.50;;;;;;;;;;5008474;28;20132;-76
2021/05/18 05:26:07;;;;;;;4.45;1.60;;;;;;;;;;5016230;28;20033;-75
2021/05/18 05:28:33;;;;;;;2.53;1.52;;;;;;;;;;5018499;28;20017;-76
2021/05/18 05:30:59;;;;;;;2.55;1.35;;;;;;;;;;5017677;28;20053;-76
2021/05/18 05:33:25;;;;;;;3.08;1.67;;;;;;;;;;5022361;28;20044;-75
2021/05/18 05:35:51;;;;;;;3.90;1.48;;;;;;;;;;5016513;28;20436;-75
2021/05/18 05:38:20;;;;;;;3.42;1.50;;;;;;;;;;5036049;28;20049;-74
2021/05/18 05:40:46;;;;;;;2.80;1.30;;;;;;;;;;5050499;28;20021;-74
2021/05/18 05:43:12;;;;;;;1.48;1.38;;;;;;;;;;5058658;28;20028;-74
2021/05/18 05:45:38;;;;;;;2.05;1.55;;;;;;;;;;5057899;28;20021;-74
2021/05/18 05:48:05;;;;;;;4.40;1.60;;;;;;;;;;5053621;28;20504;-74
2021/05/18 05:50:32;;;;;;;2.33;1.60;;;;;;;;;;5035227;28;20482;-74
2021/05/18 05:52:59;;;;;;;2.92;1.50;;;;;;;;;;5042768;28;20032;-75
2021/05/18 05:55:27;;;;;;;4.43;1.58;;;;;;;;;;5061274;28;20119;-75
2021/05/18 05:57:53;;;;;;;6.30;1.50;;;;;;;;;;5069585;28;20029;-76
2021/05/18 06:00:19;;;;;;;1.80;1.42;;;;;;;;;;5050169;28;20482;-76
2021/05/18 06:02:47;;;;;;;2.03;1.30;;;;;;;;;;5068035;28;20037;-79
2021/05/18 06:05:17;;;;;;;1.42;1.33;;;;;;;;;;5068030;28;20071;-74
2021/05/18 06:07:43;;;;;;;2.88;1.40;;;;;;;;;;5066588;28;20028;-74
2021/05/18 06:10:15;;;;;;;6.65;4.00;;;;;;;;;;5049481;28;20482;-74
2021/05/18 06:29:30;;;;;;;2.80;1.90;;;;;;;;;;5051876;28;20078;-74
2021/05/18 06:37:28;;;;;;;5.95;1.92;;;;;;;;;;5008362;28;20137;-83
2021/05/18 06:48:21;;;;;;;1.67;1.50;;;;;;;;;;4989925;28;20036;-79
2021/05/18 06:50:47;;;;;;;1.80;1.45;;;;;;;;;;4989833;28;20034;-76
2021/05/18 06:53:13;;;;;;;2.55;1.40;;;;;;;;;;4990927;28;20034;-78
2021/05/18 06:55:41;;;;;;;4.28;1.90;;;;;;;;;;4999713;28;20042;-82
2021/05/18 06:58:13;;;;;;;2.97;1.70;;;;;;;;;;4986803;28;20479;-83
2021/05/18 07:00:51;;;;;;;3.42;1.50;;;;;;;;;;5012009;28;20022;-84
2021/05/18 07:03:21;;;;;;;3.20;1.52;;;;;;;;;;4993904;28;20033;-75
2021/05/18 07:10:50;;;;;;;3.00;1.50;;;;;;;;;;5015134;28;20033;-81
2021/05/18 07:13:25;;;;;;;3.88;1.70;;;;;;;;;;4993520;28;20443;-76
2021/05/18 07:15:52;;;;;;;4.05;1.65;;;;;;;;;;5005063;28;20113;-73
2021/05/18 07:18:25;;;;;;;2.25;1.60;;;;;;;;;;4997014;28;20465;-76
2021/05/18 07:20:52;;;;;;;1.83;1.40;;;;;;;;;;4991087;28;20539;-82
2021/05/18 07:23:22;;;;;;;2.83;1.50;;;;;;;;;;5028192;28;20274;-76
2021/05/18 07:25:48;;;;;;;3.25;1.65;;;;;;;;;;5047437;28;20039;-82
2021/05/18 07:28:16;;;;;;;2.88;1.58;;;;;;;;;;5028046;28;20059;-74
2021/05/18 07:30:42;;;;;;;6.13;1.90;;;;;;;;;;5047104;28;20382;-75
2021/05/18 07:33:08;;;;;;;2.25;1.70;;;;;;;;;;5048165;28;20037;-78
2021/05/18 07:35:35;;;;;;;2.47;1.50;;;;;;;;;;5027716;28;20466;-74
2021/05/18 07:38:01;;;;;;;2.17;1.55;;;;;;;;;;5029827;28;20045;-74
2021/05/18 07:40:28;;;;;;;3.72;1.77;;;;;;;;;;5045144;28;20029;-74
2021/05/18 07:42:54;;;;;;;3.80;1.60;;;;;;;;;;5042710;28;20049;-71
2021/05/18 07:45:22;;;;;;;4.53;1.80;;;;;;;;;;5043556;28;20063;-78
2021/05/18 07:47:48;;;;;;;3.85;1.70;;;;;;;;;;5047793;28;20029;-74
2021/05/18 07:50:20;;;;;;;6.35;2.47;;;;;;;;;;5029237;28;20390;-76
2021/05/18 08:06:17;;;;;;;6.35;1.80;;;;;;;;;;5055594;28;20044;-77
2021/05/18 08:08:44;;;;;;;2.28;1.42;;;;;;;;;;5051476;28;20053;-77
2021/05/18 08:11:10;;;;;;;4.03;1.70;;;;;;;;;;5046923;28;20017;-82
2021/05/18 08:13:36;;;;;;;6.38;2.05;;;;;;;;;;5052852;28;20545;-78
2021/05/18 09:42:00;;;;;;;6.07;1.65;;;;;;;;;;4862657;29;20118;-71
2021/05/18 10:35:44;;;;;;;4.18;1.55;;;;;;;;;;5046303;28;20040;-76
2021/05/18 10:38:12;;;;;;;4.88;1.30;;;;;;;;;;5059624;28;20075;-79
2021/05/18 10:40:45;;;;;;;5.30;1.50;;;;;;;;;;5072481;28;20029;-77
2021/05/18 10:43:33;;;;;;;7.70;1.50;;;;;;;;;;5062268;28;20017;-79
2021/05/18 10:46:28;;;;;;;3.85;1.70;;;;;;;;;;5059856;28;20025;-78
2021/05/18 10:48:55;;;;;;;6.47;1.35;;;;;;;;;;5059356;28;20510;-74
2021/05/18 10:51:21;;;;;;;2.53;1.10;;;;;;;;;;5049680;28;20124;-78
2021/05/18 10:54:07;;;;;;;3.75;1.20;;;;;;;;;;5023425;28;20040;-76
2021/05/18 10:56:53;;;;;;;4.32;1.30;;;;;;;;;;5053373;28;20025;-79
2021/05/18 10:59:20;;;;;;;1.75;0.82;;;;;;;;;;5055186;28;20025;-77
2021/05/18 11:04:37;;;;;;;4.15;1.20;;;;;;;;;;5056823;28;20636;-75
2021/05/18 11:07:04;;;;;;;1.50;0.90;;;;;;;;;;5052518;28;20021;-81
2021/05/18 11:09:48;;;;;;;3.92;1.10;;;;;;;;;;5170001;23;20073;-79
2021/05/18 11:12:16;;;;;;;1.88;1.13;;;;;;;;;;5000131;28;20026;-82
2021/05/18 11:14:44;;;;;;;4.13;1.10;;;;;;;;;;5017252;28;20037;-82
2021/05/18 11:17:40;;;;;;;2.67;1.02;;;;;;;;;;4997199;28;20033;-77
2021/05/18 11:21:13;;;;;;;7.97;1.58;;;;;;;;;;5027655;28;20030;-81
2021/05/18 11:24:19;;;;;;;2.65;1.50;;;;;;;;;;4935430;29;20113;-79
2021/05/18 11:26:49;;;;;;;5.43;1.30;;;;;;;;;;5031827;23;20148;-85
2021/05/18 11:29:15;;;;;;;5.35;1.25;;;;;;;;;;5037404;28;20029;-86
2021/05/18 11:31:41;;;;;;;2.13;1.20;;;;;;;;;;5035095;28;20047;-87
2021/05/18 11:34:07;;;;;;;1.67;1.20;;;;;;;;;;5041134;28;20037;-88
2021/05/18 11:36:41;;;;;;;2.70;1.42;;;;;;;;;;5052637;28;20092;-83
2021/05/18 11:39:07;;;;;;;;;;;;;;;;;;5055916;28;20066;-87
2021/05/18 11:41:38;;;;;;;1.33;1.02;;;;;;;;;;5054800;28;19999;-86
2021/05/18 11:44:05;;;;;;;3.92;1.40;;;;;;;;;;5055429;28;20053;-86
2021/05/18 11:46:33;;;;;;;1.80;1.13;;;;;;;;;;5049968;28;20021;-86
2021/05/18 11:49:10;;;;;;;3.67;1.50;;;;;;;;;;5059194;28;20025;-83
2021/05/18 11:51:44;;;;;;;0.80;0.80;;;;;;;;;;5063657;28;20434;-86
2021/05/18 11:54:10;;;;;;;1.70;1.13;;;;;;;;;;5036989;28;20032;-88
2021/05/18 11:56:37;;;;;;;6.55;1.52;;;;;;;;;;5042943;28;20079;-87
2021/05/18 11:59:07;;;;;;;2.72;1.27;;;;;;;;;;5053243;28;20029;-85
2021/05/18 12:01:35;;;;;;;3.08;1.20;;;;;;;;;;5043140;28;20082;-86
2021/05/18 12:04:09;;;;;;;5.07;1.15;;;;;;;;;;5031752;28;20025;-85
2021/05/18 12:06:36;;;;;;;2.67;1.48;;;;;;;;;;5034905;28;20025;-78
2021/05/18 12:09:05;;;;;;;5.07;1.58;;;;;;;;;;5036637;28;20029;-86
2021/05/18 12:11:31;;;;;;;2.88;1.40;;;;;;;;;;5036712;28;20033;-86
2021/05/18 12:13:58;;;;;;;1.27;1.05;;;;;;;;;;5042441;28;20032;-86
2021/05/18 12:16:25;;;;;;;5.45;1.10;;;;;;;;;;5054245;28;20080;-87
2021/05/18 12:18:55;;;;;;;4.20;1.10;;;;;;;;;;5050436;28;20140;-88
2021/05/18 12:21:23;;;;;;;3.83;1.40;;;;;;;;;;5032081;28;20026;-83
2021/05/18 12:24:22;;;;;;;2.25;1.23;;;;;;;;;;5034082;28;20037;-87
2021/05/18 12:26:57;;;;;;;3.95;1.20;;;;;;;;;;4991204;28;20050;-84
2021/05/18 12:29:34;;;;;;;3.65;1.10;;;;;;;;;;4988614;28;20043;-76
2021/05/18 12:32:13;;;;;;;3.78;1.33;;;;;;;;;;4987551;28;20077;-78
2021/05/18 12:34:41;;;;;;;5.72;1.38;;;;;;;;;;4970294;28;20041;-87
2021/05/18 12:37:07;;;;;;;2.90;1.73;;;;;;;;;;4974932;28;20063;-84
2021/05/18 12:39:34;;;;;;;5.07;1.33;;;;;;;;;;4986182;28;20046;-86
2021/05/18 12:42:02;;;;;;;5.60;1.02;;;;;;;;;;4986552;28;20114;-86
2021/05/18 12:44:32;;;;;;;3.95;1.15;;;;;;;;;;4991567;28;20046;-87
2021/05/18 12:47:01;;;;;;;2.78;1.20;;;;;;;;;;4976099;28;20038;-86
2021/05/18 12:49:28;;;;;;;3.05;1.23;;;;;;;;;;4975690;28;20034;-85
2021/05/18 12:52:01;;;;;;;3.35;1.25;;;;;;;;;;4988160;28;20022;-87
2021/05/18 12:55:00;;;;;;;6.22;1.45;;;;;;;;;;4983447;28;20037;-83
2021/05/18 12:57:27;;;;;;;4.88;1.50;;;;;;;;;;4934856;29;20047;-82
2021/05/18 12:59:58;;;;;;;2.20;1.05;;;;;;;;;;4932267;29;20055;-86
2021/05/18 13:02:35;;;;;;;2.58;0.80;;;;;;;;;;4938916;28;20039;-82
2021/05/18 13:05:06;;;;;;;1.83;1.00;;;;;;;;;;4958109;28;20103;-84
2021/05/18 13:07:39;;;;;;;3.00;1.42;;;;;;;;;;4950976;29;20039;-85
2021/05/18 13:10:09;;;;;;;3.83;1.42;;;;;;;;;;4952333;29;20049;-80
2021/05/18 13:12:35;;;;;;;2.47;1.10;;;;;;;;;;4957287;28;20026;-82
2021/05/18 13:15:04;;;;;;;2.60;1.30;;;;;;;;;;4947941;28;20596;-85
2021/05/18 13:18:07;;;;;;;4.20;1.35;;;;;;;;;;4958139;28;20055;-84
2021/05/18 13:20:45;;;;;;;2.97;1.17;;;;;;;;;;4951652;29;20079;-79
2021/05/18 13:23:29;;;;;;;2.45;1.05;;;;;;;;;;4953222;28;20019;-84
2021/05/18 13:28:40;;;;;;;3.25;1.17;;;;;;;;;;4952983;28;20118;-83
2021/05/18 13:31:07;;;;;;;1.63;1.05;;;;;;;;;;4952932;28;20031;-86
2021/05/18 13:33:33;;;;;;;4.00;1.30;;;;;;;;;;5026123;28;20501;-86
2021/05/18 13:36:00;;;;;;;1.48;1.05;;;;;;;;;;5048341;28;20024;-83
2021/05/18 13:38:26;;;;;;;1.25;0.80;;;;;;;;;;5033060;28;20028;-79
2021/05/18 13:40:52;;;;;;;2.75;1.25;;;;;;;;;;5043243;28;20382;-86
2021/05/18 13:43:18;;;;;;;1.88;0.80;;;;;;;;;;5028352;28;20033;-85
2021/05/18 13:45:45;;;;;;;2.00;1.00;;;;;;;;;;5044131;28;20048;-82
2021/05/18 13:48:11;;;;;;;2.05;0.85;;;;;;;;;;5029651;28;20376;-80
2021/05/18 13:50:38;;;;;;;1.45;0.93;;;;;;;;;;5046337;28;20021;-83
2021/05/18 13:53:38;;;;;;;1.65;1.02;;;;;;;;;;5059082;28;20063;-86
2021/05/18 13:56:14;;;;;;;1.63;1.08;;;;;;;;;;5038423;28;20033;-85
2021/05/18 13:58:40;;;;;;;1.48;1.02;;;;;;;;;;5050477;28;20017;-85
2021/05/18 14:01:07;;;;;;;2.65;1.02;;;;;;;;;;5037964;28;20025;-85
2021/05/18 14:03:36;;;;;;;4.88;1.40;;;;;;;;;;5038413;28;20088;-85
2021/05/18 14:06:04;;;;;;;10.50;1.73;;;;;;;;;;5036643;28;20136;-86
2021/05/18 14:11:11;;;;;;;2.85;0.98;;;;;;;;;;5043268;28;20491;-87
2021/05/18 14:13:38;;;;;;;4.88;1.60;;;;;;;;;;5048814;28;20094;-80
2021/05/18 14:16:05;;;;;;;4.18;1.42;;;;;;;;;;5052285;28;20052;-83
2021/05/18 14:18:32;;;;;;;25.35;2.60;;;;;;;;;;5053445;28;20420;-85
2021/05/18 14:21:03;;;;;;;4.55;1.50;;;;;;;;;;5052607;28;20369;-85
2021/05/18 14:23:44;;;;;;;4.63;1.70;;;;;;;;;;5052033;28;20032;-86
2021/05/18 14:26:11;;;;;;;2.17;1.80;;;;;;;;;;5043863;28;20073;-85
2021/05/18 14:28:37;;;;;;;5.72;1.63;;;;;;;;;;5044309;28;20036;-83
2021/05/18 14:31:07;;;;;;;3.92;1.33;;;;;;;;;;5050759;28;20068;-80
2021/05/18 14:33:35;;;;;;;3.70;1.30;;;;;;;;;;5055888;28;20021;-80
2021/05/18 14:36:02;;;;;;;1.08;0.98;;;;;;;;;;5058131;28;20031;-82
2021/05/18 14:38:28;;;;;;;3.70;1.15;;;;;;;;;;5052172;28;20033;-83
2021/05/18 14:57:13;;;;;;;4.90;1.45;;;;;;;;;;4995582;28;20380;-80
2021/05/18 14:59:39;;;;;;;1.63;1.23;;;;;;;;;;4983614;28;20086;-79
2021/05/18 15:02:05;;;;;;;5.07;1.20;;;;;;;;;;4988090;28;20118;-78
2021/05/18 15:04:32;;;;;;;2.15;1.15;;;;;;;;;;4990837;28;20034;-77
2021/05/18 15:06:59;;;;;;;3.40;1.10;;;;;;;;;;4989316;28;20400;-75
2021/05/18 15:09:29;;;;;;;3.33;1.08;;;;;;;;;;4978212;28;20110;-86
2021/05/18 15:11:56;;;;;;;2.17;1.20;;;;;;;;;;4977518;28;20070;-75
2021/05/18 15:14:22;;;;;;;1.52;1.10;;;;;;;;;;4993624;28;20112;-81
2021/05/18 15:16:49;;;;;;;2.65;1.33;;;;;;;;;;4992017;28;20030;-77
2021/05/18 15:19:17;;;;;;;1.20;1.00;;;;;;;;;;4980260;28;20030;-73
2021/05/18 15:21:43;;;;;;;2.75;1.10;;;;;;;;;;4991663;28;20034;-77
2021/05/18 15:24:10;;;;;;;3.90;1.17;;;;;;;;;;4994427;28;20042;-86
2021/05/18 15:26:36;;;;;;;1.35;1.10;;;;;;;;;;4982476;28;20050;-85
2021/05/18 15:29:03;;;;;;;4.63;1.30;;;;;;;;;;5035378;28;20037;-83
2021/05/18 15:31:29;;;;;;;22.38;1.40;;;;;;;;;;5053413;28;20029;-82
2021/05/18 15:33:55;;;;;;;2.38;1.20;;;;;;;;;;5027000;28;20468;-80
2021/05/18 15:36:21;;;;;;;1.40;1.08;;;;;;;;;;5023960;28;20037;-79
2021/05/18 15:38:48;;;;;;;2.40;0.88;;;;;;;;;;5054976;28;20024;-85
2021/05/18 15:41:15;;;;;;;5.45;1.15;;;;;;;;;;5054050;28;20075;-81
2021/05/18 15:43:43;;;;;;;4.75;1.30;;;;;;;;;;5051486;28;20146;-84
2021/05/18 15:46:10;;;;;;;5.93;1.30;;;;;;;;;;5032848;28;20087;-84
2021/05/18 15:48:36;;;;;;;1.67;1.05;;;;;;;;;;5054529;28;20018;-85
2021/05/18 15:51:02;;;;;;;2.55;1.10;;;;;;;;;;5049475;28;20032;-84
2021/05/18 15:53:28;;;;;;;6.63;1.40;;;;;;;;;;5032951;28;20033;-81
2021/05/18 15:55:54;;;;;;;2.90;1.40;;;;;;;;;;5055197;28;20067;-81
2021/05/18 15:58:21;;;;;;;1.40;1.30;;;;;;;;;;5054863;28;20067;-84
2021/05/18 16:00:48;;;;;;;2.15;1.20;;;;;;;;;;5054842;28;20029;-80
2021/05/18 16:03:15;;;;;;;5.53;1.42;;;;;;;;;;5053141;28;20048;-83
2021/05/18 16:05:43;;;;;;;3.38;1.00;;;;;;;;;;5045285;28;20394;-82
2021/05/18 16:10:55;;;;;;;6.53;1.42;;;;;;;;;;4972998;28;20039;-80
2021/05/18 16:13:34;;;;;;;1.98;1.17;;;;;;;;;;4987924;28;20031;-83
2021/05/18 16:16:05;;;;;;;2.83;1.10;;;;;;;;;;4996311;28;20118;-77
2021/05/18 16:18:34;;;;;;;3.65;1.30;;;;;;;;;;4981691;28;20061;-85
2021/05/18 16:21:00;;;;;;;1.80;1.00;;;;;;;;;;4993358;28;20065;-78
2021/05/18 16:23:32;;;;;;;1.88;1.30;;;;;;;;;;4979685;28;20069;-82
2021/05/18 16:25:58;;;;;;;0.90;0.90;;;;;;;;;;4973449;28;20515;-77
2021/05/18 16:28:25;;;;;;;4.03;1.20;;;;;;;;;;4987336;28;20504;-82
2021/05/18 16:30:57;;;;;;;1.33;0.85;;;;;;;;;;4989066;28;20070;-81
2021/05/18 16:33:24;;;;;;;2.55;0.90;;;;;;;;;;4973363;28;20038;-82
2021/05/18 16:35:50;;;;;;;3.22;1.20;;;;;;;;;;4987957;28;20038;-84
2021/05/18 16:38:16;;;;;;;2.38;1.30;;;;;;;;;;4990290;28;20026;-84
2021/05/18 16:40:42;;;;;;;2.60;1.23;;;;;;;;;;4982327;28;20042;-85
2021/05/18 16:43:08;;;;;;;2.05;1.30;;;;;;;;;;4977715;28;20410;-80
2021/05/18 16:45:35;;;;;;;3.67;1.20;;;;;;;;;;4991268;28;20527;-83
2021/05/18 16:48:29;;;;;;;2.13;1.50;;;;;;;;;;4998771;28;20030;-87
2021/05/18 16:51:09;;;;;;;3.10;1.40;;;;;;;;;;5026529;28;20482;-78
2021/05/18 16:53:36;;;;;;;4.75;1.48;;;;;;;;;;5053865;28;20524;-79
2021/05/18 16:56:03;;;;;;;3.25;1.50;;;;;;;;;;5044979;28;20092;-79
2021/05/18 16:58:29;;;;;;;2.08;1.33;;;;;;;;;;5047897;28;20100;-79
2021/05/18 17:00:56;;;;;;;5.28;1.40;;;;;;;;;;5046448;28;20099;-80
2021/05/18 17:03:24;;;;;;;2.63;1.05;;;;;;;;;;5048058;28;20032;-79
2021/05/18 17:05:54;;;;;;;1.98;1.20;;;;;;;;;;5050113;28;20535;-81
2021/05/18 17:08:29;;;;;;;3.10;1.30;;;;;;;;;;5037843;28;20052;-85
2021/05/18 17:11:00;;;;;;;6.32;1.17;;;;;;;;;;5035805;28;20375;-78
2021/05/18 17:13:28;;;;;;;6.38;1.52;;;;;;;;;;5048413;28;20143;-80
2021/05/18 17:15:55;;;;;;;4.68;1.77;;;;;;;;;;5026457;28;20419;-81
2021/05/18 17:18:21;;;;;;;4.28;1.50;;;;;;;;;;5036583;28;20024;-79
2021/05/18 17:20:47;;;;;;;2.97;1.27;;;;;;;;;;5034420;28;20075;-79
2021/05/18 17:23:14;;;;;;;3.95;1.67;;;;;;;;;;5039758;28;20029;-83
2021/05/18 17:25:40;;;;;;;2.47;1.27;;;;;;;;;;5032324;28;20041;-79
2021/05/18 17:28:07;;;;;;;3.63;1.48;;;;;;;;;;5035216;28;20044;-79
2021/05/18 17:30:33;;;;;;;1.85;1.55;;;;;;;;;;5051452;28;20021;-79
2021/05/18 17:32:59;;;;;;;2.80;1.50;;;;;;;;;;5024348;28;20021;-82
2021/05/18 17:35:25;;;;;;;3.58;1.50;;;;;;;;;;5044347;28;20195;-85
2021/05/18 17:37:52;;;;;;;10.18;1.60;;;;;;;;;;5035942;28;20407;-80
2021/05/18 17:40:18;;;;;;;4.03;1.17;;;;;;;;;;5047367;28;20040;-83
2021/05/18 17:42:44;;;;;;;4.15;1.65;;;;;;;;;;5016596;28;20226;-79
2021/05/18 17:45:15;;;;;;;5.03;1.50;;;;;;;;;;5049239;28;20029;-80
2021/05/18 17:47:48;;;;;;;3.25;1.75;;;;;;;;;;5047519;28;20029;-79
2021/05/18 17:50:15;;;;;;;6.43;2.10;;;;;;;;;;5029664;28;20112;-74
2021/05/18 17:52:41;;;;;;;6.43;1.90;;;;;;;;;;5045400;28;20039;-78
2021/05/18 17:55:09;;;;;;;5.63;2.55;;;;;;;;;;5045005;28;20090;-78
2021/05/18 17:57:35;;;;;;;4.90;2.13;;;;;;;;;;5045693;28;20029;-75
2021/05/18 18:00:01;;;;;;;3.90;2.20;;;;;;;;;;5045666;28;20382;-73
2021/05/18 18:02:27;;;;;;;8.02;3.10;;;;;;;;;;5036998;28;20105;-77
2021/05/18 18:05:01;;;;;;;4.93;2.35;;;;;;;;;;5043148;28;20044;-79
2021/05/18 18:07:27;;;;;;;11.95;3.50;;;;;;;;;;5040547;28;20032;-74
2021/05/18 18:09:54;;;;;;;9.55;3.40;;;;;;;;;;5044318;28;20029;-76
2021/05/18 18:12:20;;;;;;;8.18;3.28;;;;;;;;;;5043929;28;20052;-77
2021/05/18 18:14:46;;;;;;;12.32;3.20;;;;;;;;;;5043028;28;20029;-76
2021/05/18 18:17:15;;;;;;;10.25;3.10;;;;;;;;;;5043009;28;20025;-77
2021/05/18 18:19:42;;;;;;;6.78;2.97;;;;;;;;;;5040793;28;20056;-76
2021/05/18 18:22:09;;;;;;;17.20;3.58;;;;;;;;;;5048180;28;20025;-76
2021/05/18 18:24:37;;;;;;;9.63;3.85;;;;;;;;;;5056655;28;20036;-75
2021/05/18 18:27:06;;;;;;;11.23;3.50;;;;;;;;;;5047063;28;20037;-76
2021/05/18 18:29:32;;;;;;;11.82;3.38;;;;;;;;;;5024450;28;20475;-76
2021/05/18 18:31:58;;;;;;;15.80;3.33;;;;;;;;;;5041201;28;20391;-74
2021/05/18 18:34:25;;;;;;;20.60;3.70;;;;;;;;;;5044700;28;20074;-75
2021/05/18 18:36:51;;;;;;;12.00;3.50;;;;;;;;;;5032000;28;20098;-75
2021/05/18 18:39:17;;;;;;;14.40;4.03;;;;;;;;;;5038067;28;20029;-77
2021/05/18 18:41:43;;;;;;;11.75;4.40;;;;;;;;;;5046089;28;20041;-76
2021/05/18 18:44:09;;;;;;;9.32;4.28;;;;;;;;;;5050434;28;20037;-76
2021/05/18 18:46:37;;;;;;;13.27;3.97;;;;;;;;;;5040532;28;20025;-76
2021/05/18 18:49:04;;;;;;;12.77;4.05;;;;;;;;;;5047753;28;20381;-75
2021/05/18 18:51:33;;;;;;;17.48;5.05;;;;;;;;;;5045480;28;20025;-74
2021/05/18 18:53:59;;;;;;;14.25;4.15;;;;;;;;;;5041745;28;20545;-75
2021/05/18 18:56:25;;;;;;;13.70;3.30;;;;;;;;;;5053416;28;20080;-75
2021/05/18 18:58:52;;;;;;;16.85;3.63;;;;;;;;;;5042697;28;20025;-75
2021/05/18 19:01:18;;;;;;;19.70;4.13;;;;;;;;;;5050885;28;20037;-76
2021/05/18 19:03:48;;;;;;;16.48;3.03;;;;;;;;;;5049416;28;20028;-75
2021/05/18 19:13:40;;;;;;;8.95;3.00;;;;;;;;;;5047457;28;20390;-75
2021/05/18 19:16:07;;;;;;;11.98;3.08;;;;;;;;;;5045047;28;20454;-75
2021/05/18 19:18:33;;;;;;;15.27;3.10;;;;;;;;;;5050007;28;20021;-75
2021/05/18 19:20:59;;;;;;;8.60;3.80;;;;;;;;;;5054040;28;20025;-75
2021/05/18 19:23:25;;;;;;;6.57;3.13;;;;;;;;;;5040464;28;20032;-75
2021/05/18 19:25:53;;;;;;;6.38;2.90;;;;;;;;;;5050816;28;20033;-75
2021/05/18 19:28:20;;;;;;;7.60;3.40;;;;;;;;;;5028112;28;20136;-75
2021/05/18 19:30:46;;;;;;;6.35;3.10;;;;;;;;;;5046156;28;20496;-76
2021/05/18 19:33:14;;;;;;;7.15;2.83;;;;;;;;;;5048310;28;20051;-76